createdAt,value
2016-11-02T00:00:38.858Z,42.27
2016-11-02T00:01:19.518Z,42.27
2016-11-02T00:02:00.621Z,42.46
2016-11-02T00:02:41.347Z,42.56
2016-11-02T00:03:22.022Z,42.56
2016-11-02T00:04:02.687Z,42.18
2016-11-02T00:04:43.379Z,42.66
2016-11-02T00:05:24.075Z,42.56
2016-11-02T00:06:04.738Z,42.56
2016-11-02T00:06:45.418Z,42.76
2016-11-02T00:07:26.069Z,42.46
2016-11-02T00:08:06.752Z,42.46
2016-11-02T00:08:47.436Z,42.66
2016-11-02T00:09:28.104Z,42.27
2016-11-02T00:10:08.760Z,42.46
2016-11-02T00:10:49.493Z,42.66
2016-11-02T00:11:30.179Z,42.18
2016-11-02T00:12:10.849Z,42.46
2016-11-02T00:12:51.569Z,42.36
2016-11-02T00:13:32.260Z,42.36
2016-11-02T00:14:12.922Z,42.66
2016-11-02T00:14:53.637Z,42.66
2016-11-02T00:15:34.318Z,42.95
2016-11-02T00:16:15.025Z,42.95
2016-11-02T00:16:55.670Z,42.85
2016-11-02T00:17:36.409Z,42.46
2016-11-02T00:18:17.076Z,42.66
2016-11-02T00:18:57.767Z,42.56
2016-11-02T00:19:38.426Z,42.66
2016-11-02T00:20:19.122Z,42.46
2016-11-02T00:20:59.825Z,42.66
2016-11-02T00:21:40.480Z,42.74
2016-11-02T00:22:21.142Z,42.66
2016-11-02T00:23:01.837Z,42.66
2016-11-02T00:23:42.531Z,42.66
2016-11-02T00:24:23.228Z,42.76
2016-11-02T00:25:03.894Z,42.36
2016-11-02T00:25:44.580Z,42.27
2016-11-02T00:26:25.233Z,42.36
2016-11-02T00:27:05.909Z,42.46
2016-11-02T00:27:46.595Z,42.76
2016-11-02T00:28:27.276Z,42.46
2016-11-02T00:29:07.962Z,42.56
2016-11-02T00:29:48.631Z,42.56
2016-11-02T00:30:29.346Z,42.66
2016-11-02T00:31:10.029Z,42.36
2016-11-02T00:31:50.683Z,42.56
2016-11-02T00:32:31.365Z,42.66
2016-11-02T00:33:12.031Z,42.36
2016-11-02T00:33:52.722Z,42.46
2016-11-02T00:34:33.395Z,42.76
2016-11-02T00:35:14.049Z,42.27
2016-11-02T00:35:54.670Z,42.36
2016-11-02T00:36:35.374Z,42.56
2016-11-02T00:37:16.041Z,42.46
2016-11-02T00:37:56.680Z,42.85
2016-11-02T00:38:37.357Z,42.95
2016-11-02T00:39:18.075Z,42.83
2016-11-02T00:39:58.809Z,43.02
2016-11-02T00:40:39.501Z,42.85
2016-11-02T00:41:20.208Z,42.76
2016-11-02T00:42:00.832Z,42.76
2016-11-02T00:42:41.545Z,42.76
2016-11-02T00:43:22.244Z,42.95
2016-11-02T00:44:02.948Z,43.02
2016-11-02T00:44:43.623Z,43.05
2016-11-02T00:45:24.298Z,42.76
2016-11-02T00:46:05.010Z,42.76
2016-11-02T00:46:45.668Z,42.66
2016-11-02T00:47:26.375Z,42.36
2016-11-02T00:48:07.027Z,42.27
2016-11-02T00:48:47.686Z,42.46
2016-11-02T00:49:28.395Z,42.27
2016-11-02T00:50:09.071Z,42.27
2016-11-02T00:50:49.758Z,42.36
2016-11-02T00:51:30.421Z,42.46
2016-11-02T00:52:11.099Z,42.56
2016-11-02T00:52:51.790Z,42.85
2016-11-02T00:53:32.510Z,43.02
2016-11-02T00:54:13.200Z,43.02
2016-11-02T00:54:53.898Z,43.02
2016-11-02T00:55:34.608Z,43.12
2016-11-02T00:56:15.281Z,42.93
2016-11-02T00:56:55.947Z,42.76
2016-11-02T00:57:36.650Z,42.46
2016-11-02T00:58:17.337Z,42.46
2016-11-02T00:58:58.041Z,42.76
2016-11-02T00:59:38.708Z,42.46
2016-11-02T01:00:19.363Z,43.05
2016-11-02T01:00:59.985Z,42.83
2016-11-02T01:01:40.662Z,42.95
2016-11-02T01:02:21.362Z,42.95
2016-11-02T01:03:02.063Z,43.05
2016-11-02T01:03:42.719Z,43.15
2016-11-02T01:04:23.403Z,42.83
2016-11-02T01:05:04.163Z,43.02
2016-11-02T01:05:44.844Z,42.93
2016-11-02T01:06:25.512Z,43.12
2016-11-02T01:07:06.202Z,42.95
2016-11-02T01:07:46.921Z,43.12
2016-11-02T01:08:27.570Z,43.02
2016-11-02T01:09:08.253Z,42.74
2016-11-02T01:09:48.938Z,42.74
2016-11-02T01:10:29.625Z,43.12
2016-11-02T01:11:10.320Z,43.05
2016-11-02T01:11:50.965Z,43.05
2016-11-02T01:12:31.636Z,42.83
2016-11-02T01:13:12.321Z,43.05
2016-11-02T01:13:53.014Z,42.95
2016-11-02T01:14:33.724Z,43.05
2016-11-02T01:15:14.385Z,42.76
2016-11-02T01:15:55.114Z,42.95
2016-11-02T01:16:35.793Z,42.93
2016-11-02T01:17:16.489Z,43.12
2016-11-02T01:17:57.199Z,42.83
2016-11-02T01:18:37.862Z,42.83
2016-11-02T01:19:18.555Z,42.66
2016-11-02T01:19:59.317Z,42.46
2016-11-02T01:20:39.947Z,42.76
2016-11-02T01:21:20.587Z,43.05
2016-11-02T01:22:01.300Z,43.02
2016-11-02T01:22:42.007Z,43.02
2016-11-02T01:23:22.700Z,43.05
2016-11-02T01:24:03.408Z,43.02
2016-11-02T01:24:44.142Z,42.93
2016-11-02T01:25:24.845Z,43.05
2016-11-02T01:26:05.549Z,43.12
2016-11-02T01:26:46.231Z,42.95
2016-11-02T01:27:26.908Z,43.02
2016-11-02T01:28:07.584Z,42.83
2016-11-02T01:28:48.286Z,43.12
2016-11-02T01:29:28.996Z,42.93
2016-11-02T01:30:09.657Z,42.76
2016-11-02T01:30:50.349Z,42.66
2016-11-02T01:31:31.050Z,42.66
2016-11-02T01:32:11.703Z,42.54
2016-11-02T01:32:52.402Z,42.74
2016-11-02T01:33:33.121Z,43.05
2016-11-02T01:34:13.760Z,43.12
2016-11-02T01:34:54.473Z,43.05
2016-11-02T01:35:35.145Z,42.76
2016-11-02T01:36:15.802Z,43.02
2016-11-02T01:36:56.521Z,43.12
2016-11-02T01:37:37.210Z,43.02
2016-11-02T01:38:17.874Z,43.05
2016-11-02T01:38:58.540Z,43.05
2016-11-02T01:39:39.192Z,43.02
2016-11-02T01:40:19.868Z,42.83
2016-11-02T01:41:00.525Z,42.85
2016-11-02T01:41:41.225Z,42.83
2016-11-02T01:42:21.891Z,42.74
2016-11-02T01:43:02.586Z,42.93
2016-11-02T01:43:43.272Z,42.95
2016-11-02T01:44:23.940Z,43.15
2016-11-02T01:45:04.622Z,43.05
2016-11-02T01:45:45.260Z,42.83
2016-11-02T01:46:25.901Z,42.95
2016-11-02T01:47:06.523Z,43.12
2016-11-02T01:47:47.206Z,43.12
2016-11-02T01:48:27.869Z,43.12
2016-11-02T01:49:08.572Z,43.15
2016-11-02T01:49:49.227Z,42.95
2016-11-02T01:50:29.939Z,43.05
2016-11-02T01:51:10.643Z,42.93
2016-11-02T01:51:51.307Z,42.74
2016-11-02T01:52:32.009Z,43.15
2016-11-02T01:53:12.688Z,42.83
2016-11-02T01:53:53.346Z,42.83
2016-11-02T01:54:34.062Z,42.95
2016-11-02T01:55:14.723Z,43.12
2016-11-02T01:55:55.406Z,43.12
2016-11-02T01:56:36.030Z,43.05
2016-11-02T01:57:16.710Z,42.93
2016-11-02T01:57:57.441Z,42.83
2016-11-02T01:58:38.099Z,42.93
2016-11-02T01:59:18.787Z,42.93
2016-11-02T01:59:59.499Z,43.12
2016-11-02T02:00:40.157Z,42.83
2016-11-02T02:01:20.817Z,42.93
2016-11-02T02:02:01.469Z,42.76
2016-11-02T02:02:42.149Z,42.95
2016-11-02T02:03:22.850Z,42.95
2016-11-02T02:04:03.457Z,43.02
2016-11-02T02:04:44.192Z,43.15
2016-11-02T02:05:24.918Z,42.95
2016-11-02T02:06:05.617Z,43.02
2016-11-02T02:06:46.352Z,42.93
2016-11-02T02:07:27.015Z,43.02
2016-11-02T02:08:07.720Z,42.83
2016-11-02T02:08:48.391Z,43.15
2016-11-02T02:09:29.124Z,42.83
2016-11-02T02:10:09.853Z,43.12
2016-11-02T02:10:50.599Z,43.12
2016-11-02T02:11:31.330Z,43.02
2016-11-02T02:12:12.034Z,42.83
2016-11-02T02:12:52.737Z,43.02
2016-11-02T02:13:33.432Z,42.95
2016-11-02T02:14:14.118Z,43.02
2016-11-02T02:14:54.827Z,42.83
2016-11-02T02:15:35.496Z,42.83
2016-11-02T02:16:16.208Z,43.02
2016-11-02T02:16:56.858Z,42.93
2016-11-02T02:17:37.578Z,43.12
2016-11-02T02:18:18.221Z,42.93
2016-11-02T02:18:58.918Z,43.12
2016-11-02T02:19:39.579Z,43.22
2016-11-02T02:20:20.239Z,43.02
2016-11-02T02:21:00.903Z,43.02
2016-11-02T02:21:41.583Z,43.15
2016-11-02T02:22:22.304Z,42.93
2016-11-02T02:23:02.995Z,43.05
2016-11-02T02:23:43.681Z,42.95
2016-11-02T02:24:24.361Z,42.85
2016-11-02T02:25:05.028Z,42.93
2016-11-02T02:25:45.750Z,42.93
2016-11-02T02:26:26.385Z,43.12
2016-11-02T02:27:07.102Z,42.93
2016-11-02T02:27:47.818Z,42.83
2016-11-02T02:28:28.546Z,43.22
2016-11-02T02:29:09.286Z,42.74
2016-11-02T02:29:49.993Z,43.12
2016-11-02T02:30:30.672Z,42.64
2016-11-02T02:31:11.340Z,43.22
2016-11-02T02:31:52.057Z,43.12
2016-11-02T02:32:32.751Z,43.02
2016-11-02T02:33:13.515Z,43.12
2016-11-02T02:33:54.195Z,43.02
2016-11-02T02:34:34.876Z,43.15
2016-11-02T02:35:15.558Z,42.83
2016-11-02T02:35:56.218Z,43.15
2016-11-02T02:36:36.951Z,43.12
2016-11-02T02:37:17.665Z,42.93
2016-11-02T02:37:58.349Z,43.12
2016-11-02T02:38:39.041Z,43.02
2016-11-02T02:39:19.774Z,43.12
2016-11-02T02:40:00.455Z,43.15
2016-11-02T02:40:41.140Z,42.83
2016-11-02T02:41:21.814Z,42.93
2016-11-02T02:42:02.492Z,42.83
2016-11-02T02:42:43.192Z,43.02
2016-11-02T02:43:23.881Z,43.02
2016-11-02T02:44:04.590Z,43.22
2016-11-02T02:44:45.321Z,43.15
2016-11-02T02:45:26.004Z,43.22
2016-11-02T02:46:06.711Z,42.83
2016-11-02T02:46:47.443Z,43.32
2016-11-02T02:47:28.091Z,43.02
2016-11-02T02:48:08.772Z,43.02
2016-11-02T02:48:49.475Z,42.64
2016-11-02T02:49:30.139Z,43.22
2016-11-02T02:50:10.817Z,43.32
2016-11-02T02:50:51.509Z,42.93
2016-11-02T02:51:32.202Z,43.02
2016-11-02T02:52:12.874Z,43.22
2016-11-02T02:52:53.545Z,42.64
2016-11-02T02:53:34.256Z,43.12
2016-11-02T02:54:14.931Z,43.12
2016-11-02T02:54:55.661Z,43.22
2016-11-02T02:55:36.325Z,42.74
2016-11-02T02:56:16.991Z,42.83
2016-11-02T02:56:57.676Z,42.93
2016-11-02T02:57:38.356Z,42.93
2016-11-02T02:58:19.025Z,43.02
2016-11-02T02:58:59.727Z,43.12
2016-11-02T02:59:40.361Z,42.93
2016-11-02T03:00:21.069Z,42.74
2016-11-02T03:01:01.749Z,43.12
2016-11-02T03:01:42.424Z,43.12
2016-11-02T03:02:23.091Z,42.83
2016-11-02T03:03:03.813Z,43.22
2016-11-02T03:03:44.525Z,43.22
2016-11-02T03:04:25.169Z,43.02
2016-11-02T03:05:06.721Z,43.22
2016-11-02T03:05:47.400Z,43.12
2016-11-02T03:06:28.089Z,42.93
2016-11-02T03:07:08.826Z,43.32
2016-11-02T03:07:49.476Z,42.83
2016-11-02T03:08:30.187Z,43.32
2016-11-02T03:09:10.817Z,43.32
2016-11-02T03:09:51.537Z,43.22
2016-11-02T03:10:32.190Z,42.54
2016-11-02T03:11:12.905Z,43.02
2016-11-02T03:11:53.548Z,43.12
2016-11-02T03:12:34.240Z,43.22
2016-11-02T03:13:14.953Z,43.22
2016-11-02T03:13:55.631Z,43.02
2016-11-02T03:14:36.328Z,43.02
2016-11-02T03:15:17.027Z,43.12
2016-11-02T03:15:57.732Z,43.12
2016-11-02T03:16:38.427Z,42.93
2016-11-02T03:17:19.123Z,43.32
2016-11-02T03:17:59.764Z,43.22
2016-11-02T03:18:40.448Z,43.32
2016-11-02T03:19:21.095Z,42.83
2016-11-02T03:20:01.761Z,43.32
2016-11-02T03:20:42.397Z,42.83
2016-11-02T03:21:23.104Z,43.02
2016-11-02T03:22:03.744Z,43.12
2016-11-02T03:22:44.467Z,42.64
2016-11-02T03:23:25.150Z,43.22
2016-11-02T03:24:05.824Z,42.93
2016-11-02T03:24:46.525Z,42.83
2016-11-02T03:25:27.202Z,43.02
2016-11-02T03:26:07.903Z,42.64
2016-11-02T03:26:48.628Z,42.64
2016-11-02T03:27:29.276Z,42.74
2016-11-02T03:28:09.961Z,43.22
2016-11-02T03:28:50.639Z,43.12
2016-11-02T03:29:31.336Z,43.22
2016-11-02T03:30:12.039Z,43.12
2016-11-02T03:30:52.743Z,43.32
2016-11-02T03:31:33.402Z,43.22
2016-11-02T03:32:14.096Z,43.12
2016-11-02T03:32:54.769Z,43.32
2016-11-02T03:33:35.414Z,42.93
2016-11-02T03:34:16.089Z,43.22
2016-11-02T03:34:56.799Z,43.12
2016-11-02T03:35:37.481Z,42.83
2016-11-02T03:36:18.177Z,43.12
2016-11-02T03:36:58.853Z,43.22
2016-11-02T03:37:39.508Z,43.02
2016-11-02T03:38:20.186Z,43.22
2016-11-02T03:39:00.849Z,43.22
2016-11-02T03:39:41.506Z,43.41
2016-11-02T03:40:22.190Z,43.02
2016-11-02T03:41:02.826Z,42.83
2016-11-02T03:41:43.493Z,43.22
2016-11-02T03:42:24.194Z,43.22
2016-11-02T03:43:04.868Z,43.12
2016-11-02T03:43:45.579Z,42.83
2016-11-02T03:44:26.267Z,42.83
2016-11-02T03:45:07.010Z,43.02
2016-11-02T03:45:47.687Z,43.22
2016-11-02T03:46:28.380Z,42.83
2016-11-02T03:47:09.053Z,43.22
2016-11-02T03:47:49.733Z,42.93
2016-11-02T03:48:30.459Z,42.83
2016-11-02T03:49:11.134Z,43.12
2016-11-02T03:49:51.859Z,43.02
2016-11-02T03:50:32.561Z,43.32
2016-11-02T03:51:13.201Z,43.22
2016-11-02T03:51:53.859Z,43.32
2016-11-02T03:52:34.519Z,42.83
2016-11-02T03:53:15.199Z,43.22
2016-11-02T03:53:55.894Z,43.22
2016-11-02T03:54:36.563Z,43.22
2016-11-02T03:55:17.305Z,42.93
2016-11-02T03:55:58.001Z,42.93
2016-11-02T03:56:38.698Z,43.02
2016-11-02T03:57:19.355Z,43.02
2016-11-02T03:58:00.008Z,43.12
2016-11-02T03:58:40.678Z,43.12
2016-11-02T03:59:21.408Z,43.12
2016-11-02T04:00:02.125Z,43.12
2016-11-02T04:00:42.809Z,43.22
2016-11-02T04:01:23.477Z,43.12
2016-11-02T04:02:04.204Z,42.83
2016-11-02T04:02:44.890Z,43.12
2016-11-02T04:03:25.585Z,42.83
2016-11-02T04:04:06.309Z,42.83
2016-11-02T04:04:46.963Z,42.83
2016-11-02T04:05:27.645Z,42.93
2016-11-02T04:06:08.344Z,43.12
2016-11-02T04:06:49.047Z,43.22
2016-11-02T04:07:29.763Z,42.93
2016-11-02T04:08:10.431Z,43.22
2016-11-02T04:08:51.094Z,43.22
2016-11-02T04:09:31.758Z,42.83
2016-11-02T04:10:12.401Z,42.83
2016-11-02T04:10:53.114Z,43.12
2016-11-02T04:11:33.796Z,43.22
2016-11-02T04:12:14.475Z,42.83
2016-11-02T04:12:55.131Z,43.12
2016-11-02T04:13:35.777Z,43.02
2016-11-02T04:14:16.448Z,43.12
2016-11-02T04:14:57.134Z,43.22
2016-11-02T04:15:37.840Z,43.22
2016-11-02T04:16:18.480Z,43.02
2016-11-02T04:16:59.162Z,43.32
2016-11-02T04:17:39.844Z,43.32
2016-11-02T04:18:20.516Z,43.32
2016-11-02T04:19:01.203Z,43.51
2016-11-02T04:19:41.859Z,43.51
2016-11-02T04:20:22.516Z,43.12
2016-11-02T04:21:03.214Z,43.02
2016-11-02T04:21:43.929Z,43.02
2016-11-02T04:22:24.572Z,43.12
2016-11-02T04:23:05.199Z,43.32
2016-11-02T04:23:45.862Z,43.22
2016-11-02T04:24:26.566Z,43.51
2016-11-02T04:25:07.258Z,43.61
2016-11-02T04:25:47.948Z,43.61
2016-11-02T04:26:28.617Z,43.61
2016-11-02T04:27:09.295Z,43.61
2016-11-02T04:27:49.974Z,43.22
2016-11-02T04:28:30.663Z,43.22
2016-11-02T04:29:11.374Z,43.12
2016-11-02T04:29:52.043Z,43.12
2016-11-02T04:30:32.723Z,43.32
2016-11-02T04:31:13.423Z,43.22
2016-11-02T04:31:54.155Z,43.22
2016-11-02T04:32:34.845Z,43.22
2016-11-02T04:33:15.562Z,42.93
2016-11-02T04:33:56.229Z,43.22
2016-11-02T04:34:36.905Z,43.12
2016-11-02T04:35:17.581Z,43.12
2016-11-02T04:35:58.209Z,43.22
2016-11-02T04:36:38.894Z,43.51
2016-11-02T04:37:19.647Z,43.41
2016-11-02T04:38:00.325Z,43.41
2016-11-02T04:38:40.992Z,43.22
2016-11-02T04:39:21.652Z,43.22
2016-11-02T04:40:02.322Z,43.41
2016-11-02T04:40:43.010Z,43.22
2016-11-02T04:41:23.697Z,43.51
2016-11-02T04:42:04.376Z,43.41
2016-11-02T04:42:45.071Z,43.12
2016-11-02T04:43:25.774Z,43.32
2016-11-02T04:44:06.446Z,43.22
2016-11-02T04:44:47.099Z,43.12
2016-11-02T04:45:27.790Z,43.12
2016-11-02T04:46:08.484Z,43.22
2016-11-02T04:46:49.169Z,43.12
2016-11-02T04:47:29.833Z,43.22
2016-11-02T04:48:10.472Z,43.22
2016-11-02T04:48:51.179Z,43.32
2016-11-02T04:49:31.851Z,43.61
2016-11-02T04:50:12.548Z,43.32
2016-11-02T04:50:53.239Z,43.12
2016-11-02T04:51:33.949Z,43.12
2016-11-02T04:52:14.609Z,43.22
2016-11-02T04:52:55.303Z,43.51
2016-11-02T04:53:35.985Z,43.32
2016-11-02T04:54:16.705Z,43.32
2016-11-02T04:54:57.388Z,43.22
2016-11-02T04:55:38.051Z,43.22
2016-11-02T04:56:18.691Z,43.22
2016-11-02T04:56:59.403Z,43.02
2016-11-02T04:57:40.079Z,43.02
2016-11-02T04:58:20.773Z,43.32
2016-11-02T04:59:01.451Z,43.51
2016-11-02T04:59:42.173Z,43.22
2016-11-02T05:00:22.854Z,43.12
2016-11-02T05:01:03.555Z,43.32
2016-11-02T05:01:44.265Z,43.22
2016-11-02T05:02:24.978Z,42.93
2016-11-02T05:03:05.638Z,43.12
2016-11-02T05:03:46.359Z,43.12
2016-11-02T05:04:27.081Z,43.12
2016-11-02T05:05:07.769Z,42.93
2016-11-02T05:05:48.485Z,43.22
2016-11-02T05:06:29.176Z,43.32
2016-11-02T05:07:09.886Z,43.32
2016-11-02T05:07:50.631Z,43.22
2016-11-02T05:08:31.347Z,43.32
2016-11-02T05:09:12.068Z,43.22
2016-11-02T05:09:52.744Z,43.22
2016-11-02T05:10:33.401Z,43.22
2016-11-02T05:11:14.121Z,43.51
2016-11-02T05:11:54.772Z,43.32
2016-11-02T05:12:35.455Z,43.12
2016-11-02T05:13:16.125Z,43.22
2016-11-02T05:13:56.812Z,43.32
2016-11-02T05:14:37.518Z,43.02
2016-11-02T05:15:18.164Z,43.51
2016-11-02T05:15:58.846Z,43.41
2016-11-02T05:16:39.576Z,43.22
2016-11-02T05:17:20.270Z,43.22
2016-11-02T05:18:00.940Z,43.61
2016-11-02T05:18:41.659Z,43.41
2016-11-02T05:19:22.335Z,43.32
2016-11-02T05:20:03.031Z,43.12
2016-11-02T05:20:43.710Z,43.22
2016-11-02T05:21:24.386Z,43.22
2016-11-02T05:22:05.079Z,43.22
2016-11-02T05:22:45.767Z,43.02
2016-11-02T05:23:26.458Z,43.12
2016-11-02T05:24:07.166Z,43.32
2016-11-02T05:24:47.836Z,43.12
2016-11-02T05:25:28.512Z,43.51
2016-11-02T05:26:09.217Z,43.12
2016-11-02T05:26:49.887Z,43.22
2016-11-02T05:27:30.580Z,43.02
2016-11-02T05:28:11.290Z,43.12
2016-11-02T05:28:51.995Z,43.22
2016-11-02T05:29:32.671Z,43.02
2016-11-02T05:30:13.369Z,43.12
2016-11-02T05:30:54.010Z,43.22
2016-11-02T05:31:34.724Z,43.12
2016-11-02T05:32:15.451Z,43.22
2016-11-02T05:32:56.110Z,43.61
2016-11-02T05:33:36.729Z,43.51
2016-11-02T05:34:17.435Z,43.51
2016-11-02T05:34:58.132Z,43.51
2016-11-02T05:35:38.803Z,43.51
2016-11-02T05:36:19.496Z,43.51
2016-11-02T05:37:00.181Z,43.51
2016-11-02T05:37:40.881Z,43.61
2016-11-02T05:38:21.599Z,43.51
2016-11-02T05:39:02.253Z,43.32
2016-11-02T05:39:42.944Z,43.22
2016-11-02T05:40:23.603Z,43.22
2016-11-02T05:41:04.293Z,43.02
2016-11-02T05:41:44.981Z,43.22
2016-11-02T05:42:25.677Z,43.51
2016-11-02T05:43:06.334Z,43.51
2016-11-02T05:43:47.015Z,43.49
2016-11-02T05:44:27.658Z,43.49
2016-11-02T05:45:08.352Z,43.41
2016-11-02T05:45:49.060Z,43.61
2016-11-02T05:46:29.774Z,43.51
2016-11-02T05:47:10.403Z,43.51
2016-11-02T05:47:51.096Z,43.41
2016-11-02T05:48:31.830Z,43.41
2016-11-02T05:49:12.507Z,43.51
2016-11-02T05:49:53.203Z,43.22
2016-11-02T05:50:33.894Z,43.51
2016-11-02T05:51:14.615Z,43.51
2016-11-02T05:51:55.286Z,43.61
2016-11-02T05:52:35.983Z,43.51
2016-11-02T05:53:16.727Z,43.22
2016-11-02T05:53:57.387Z,43.22
2016-11-02T05:54:38.079Z,43.02
2016-11-02T05:55:18.759Z,43.12
2016-11-02T05:55:59.438Z,43.41
2016-11-02T05:56:40.080Z,43.12
2016-11-02T05:57:20.751Z,43.12
2016-11-02T05:58:01.393Z,43.22
2016-11-02T05:58:42.116Z,43.22
2016-11-02T05:59:22.795Z,43.12
2016-11-02T06:00:03.456Z,43.32
2016-11-02T06:00:44.161Z,42.83
2016-11-02T06:01:24.847Z,43.22
2016-11-02T06:02:05.469Z,43.32
2016-11-02T06:02:46.138Z,43.22
2016-11-02T06:03:26.878Z,43.32
2016-11-02T06:04:07.545Z,43.22
2016-11-02T06:04:48.219Z,43.22
2016-11-02T06:05:28.934Z,43.41
2016-11-02T06:06:09.613Z,43.41
2016-11-02T06:06:50.280Z,43.12
2016-11-02T06:07:30.976Z,43.32
2016-11-02T06:08:11.680Z,43.49
2016-11-02T06:08:52.374Z,43.22
2016-11-02T06:09:33.063Z,43.51
2016-11-02T06:10:13.734Z,43.4
2016-11-02T06:10:54.408Z,43.41
2016-11-02T06:11:35.138Z,43.51
2016-11-02T06:12:15.833Z,43.41
2016-11-02T06:12:56.492Z,43.32
2016-11-02T06:13:37.166Z,43.22
2016-11-02T06:14:17.811Z,43.22
2016-11-02T06:14:58.511Z,43.12
2016-11-02T06:15:39.189Z,43.32
2016-11-02T06:16:19.877Z,43.61
2016-11-02T06:17:00.557Z,43.61
2016-11-02T06:17:41.223Z,43.41
2016-11-02T06:18:21.890Z,43.61
2016-11-02T06:19:02.584Z,43.41
2016-11-02T06:19:43.278Z,43.41
2016-11-02T06:20:23.961Z,43.51
2016-11-02T06:21:04.639Z,43.59
2016-11-02T06:21:45.341Z,43.51
2016-11-02T06:22:26.051Z,43.32
2016-11-02T06:23:06.718Z,43.22
2016-11-02T06:23:47.412Z,43.32
2016-11-02T06:24:28.093Z,43.22
2016-11-02T06:25:08.769Z,43.51
2016-11-02T06:25:49.416Z,43.61
2016-11-02T06:26:30.111Z,43.51
2016-11-02T06:27:10.791Z,43.51
2016-11-02T06:27:51.450Z,43.51
2016-11-02T06:28:32.133Z,43.12
2016-11-02T06:29:12.792Z,43.32
2016-11-02T06:29:53.477Z,43.51
2016-11-02T06:30:34.164Z,43.41
2016-11-02T06:31:14.878Z,43.49
2016-11-02T06:31:55.542Z,43.51
2016-11-02T06:32:36.230Z,43.51
2016-11-02T06:33:16.932Z,43.61
2016-11-02T06:33:57.571Z,43.51
2016-11-02T06:34:38.252Z,43.12
2016-11-02T06:35:18.972Z,43.51
2016-11-02T06:35:59.626Z,43.32
2016-11-02T06:36:40.312Z,43.32
2016-11-02T06:37:21.018Z,43.51
2016-11-02T06:38:01.684Z,43.61
2016-11-02T06:38:42.376Z,43.51
2016-11-02T06:39:23.079Z,43.32
2016-11-02T06:40:03.786Z,43.41
2016-11-02T06:40:44.473Z,43.51
2016-11-02T06:41:25.182Z,43.41
2016-11-02T06:42:05.874Z,43.51
2016-11-02T06:42:46.546Z,43.41
2016-11-02T06:43:27.241Z,43.22
2016-11-02T06:44:07.986Z,43.32
2016-11-02T06:44:48.706Z,43.22
2016-11-02T06:45:29.397Z,43.12
2016-11-02T06:46:10.123Z,43.22
2016-11-02T06:46:50.763Z,43.12
2016-11-02T06:47:31.401Z,43.32
2016-11-02T06:48:12.098Z,43.32
2016-11-02T06:48:52.787Z,43.12
2016-11-02T06:49:33.462Z,43.12
2016-11-02T06:50:14.117Z,43.32
2016-11-02T06:50:54.785Z,43.22
2016-11-02T06:51:35.531Z,43.22
2016-11-02T06:52:16.220Z,43.51
2016-11-02T06:52:56.939Z,43.41
2016-11-02T06:53:37.614Z,43.22
2016-11-02T06:54:18.299Z,43.51
2016-11-02T06:54:58.967Z,43.32
2016-11-02T06:55:39.656Z,43.02
2016-11-02T06:56:20.365Z,43.12
2016-11-02T06:57:01.136Z,43.12
2016-11-02T06:57:41.824Z,43.51
2016-11-02T06:58:22.534Z,43.51
2016-11-02T06:59:04.048Z,43.41
2016-11-02T06:59:44.716Z,43.51
2016-11-02T07:00:25.408Z,43.32
2016-11-02T07:01:06.046Z,43.51
2016-11-02T07:01:46.759Z,43.41
2016-11-02T07:31:11.275Z,45.87
2016-11-02T07:31:51.913Z,45.68
2016-11-02T07:32:32.602Z,46.26
2016-11-02T07:33:13.292Z,45.97
2016-11-02T07:33:53.940Z,46.53
2016-11-02T07:34:34.612Z,45.39
2016-11-02T07:35:15.263Z,45.58
2016-11-02T07:35:55.931Z,45.29
2016-11-02T07:36:36.635Z,45.65
2016-11-02T07:37:17.304Z,45.17
2016-11-02T07:37:57.993Z,45.56
2016-11-02T07:38:38.661Z,45.07
2016-11-02T07:39:19.365Z,46.22
2016-11-02T07:40:00.039Z,46.97
2016-11-02T07:40:40.712Z,47.64
2016-11-02T07:41:23.021Z,48.11
2016-11-02T07:42:03.694Z,48.11
2016-11-02T07:42:45.148Z,48.13
2016-11-02T07:43:25.078Z,47.55
2016-11-02T07:44:05.824Z,48.01
2016-11-02T07:44:46.535Z,48.11
2016-11-02T07:45:27.163Z,48.01
2016-11-02T07:46:07.887Z,48.3
2016-11-02T07:46:48.565Z,48.59
2016-11-02T07:47:29.247Z,48.2
2016-11-02T07:48:09.931Z,48.27
2016-11-02T07:48:50.625Z,48.27
2016-11-02T07:49:31.292Z,48.76
2016-11-02T07:50:11.965Z,48.01
2016-11-02T07:50:52.663Z,46.56
2016-11-02T07:51:33.345Z,45.9
2016-11-02T07:52:14.645Z,44.47
2016-11-02T07:52:55.393Z,44.54
2016-11-02T07:53:36.041Z,44.45
2016-11-02T07:54:16.743Z,44.72
2016-11-02T07:54:57.422Z,45.18
2016-11-02T07:55:38.135Z,45.37
2016-11-02T07:56:18.831Z,44.53
2016-11-02T07:56:59.514Z,44.33
2016-11-02T07:57:40.234Z,44.43
2016-11-02T07:58:20.909Z,44.57
2016-11-02T07:59:01.595Z,45.08
2016-11-02T07:59:42.267Z,44.38
2016-11-02T08:00:23.016Z,44.57
2016-11-02T08:01:03.736Z,44.12
2016-11-02T08:01:44.407Z,43.75
2016-11-02T08:02:25.287Z,43.34
2016-11-02T08:03:06.007Z,44.12
2016-11-02T08:03:46.771Z,44.56
2016-11-02T08:04:27.450Z,45.14
2016-11-02T08:05:08.097Z,44.26
2016-11-02T08:05:48.757Z,43.9
2016-11-02T08:06:29.424Z,43.61
2016-11-02T08:07:10.121Z,43.51
2016-11-02T08:07:50.851Z,43.68
2016-11-02T08:08:31.512Z,44.43
2016-11-02T08:09:12.227Z,44.43
2016-11-02T08:09:53.112Z,43.4
2016-11-02T08:10:33.787Z,42.83
2016-11-02T08:11:14.507Z,43.95
2016-11-02T08:11:55.230Z,43.98
2016-11-02T08:12:35.874Z,43.95
2016-11-02T08:13:16.647Z,44.43
2016-11-02T08:13:57.314Z,43.49
2016-11-02T08:14:37.962Z,43.57
2016-11-02T08:15:18.632Z,43.88
2016-11-02T08:15:59.298Z,43.88
2016-11-02T08:16:39.995Z,43.76
2016-11-02T08:17:20.679Z,43.68
2016-11-02T08:18:01.337Z,44.05
2016-11-02T08:18:42.006Z,43.3
2016-11-02T08:19:22.720Z,42.25
2016-11-02T08:20:03.369Z,42.52
2016-11-02T08:20:44.657Z,43.37
2016-11-02T08:21:24.756Z,43.64
2016-11-02T08:22:05.445Z,44.39
2016-11-02T08:22:46.760Z,45.36
2016-11-02T08:23:27.469Z,44.42
2016-11-02T08:24:08.176Z,44.6
2016-11-02T08:24:48.824Z,43.64
2016-11-02T08:25:29.507Z,44.03
2016-11-02T08:26:10.257Z,44.49
2016-11-02T08:26:50.954Z,44.49
2016-11-02T08:27:31.681Z,44.29
2016-11-02T08:28:12.388Z,43.66
2016-11-02T08:28:53.085Z,42.77
2016-11-02T08:29:33.750Z,43.45
2016-11-02T08:30:14.471Z,43.52
2016-11-02T08:30:55.182Z,43.54
2016-11-02T08:31:35.851Z,44.03
2016-11-02T08:32:16.540Z,43.93
2016-11-02T08:32:57.203Z,42.79
2016-11-02T08:33:37.924Z,42.21
2016-11-02T08:34:19.418Z,42.68
2016-11-02T08:35:00.670Z,42.5
2016-11-02T08:35:40.799Z,43.16
2016-11-02T08:36:21.532Z,42.6
2016-11-02T08:37:02.237Z,43.35
2016-11-02T08:37:42.886Z,43.06
2016-11-02T08:38:23.595Z,43.64
2016-11-02T08:39:04.259Z,43.08
2016-11-02T08:39:44.915Z,42.43
2016-11-02T08:40:25.637Z,41.85
2016-11-02T08:41:06.364Z,42.89
2016-11-02T08:41:47.111Z,42.33
2016-11-02T08:42:27.750Z,41.85
2016-11-02T08:43:08.423Z,42.02
2016-11-02T08:43:49.673Z,42.62
2016-11-02T08:44:30.544Z,41.87
2016-11-02T08:45:11.215Z,42.07
2016-11-02T08:45:51.902Z,41.67
2016-11-02T08:46:32.615Z,42.07
2016-11-02T08:47:14.178Z,42.07
2016-11-02T08:47:54.016Z,41.94
2016-11-02T08:48:35.666Z,41.87
2016-11-02T08:49:15.509Z,42.16
2016-11-02T08:49:56.138Z,41.58
2016-11-02T08:50:37.717Z,41.94
2016-11-02T08:51:18.440Z,42.62
2016-11-02T08:51:59.156Z,42.25
2016-11-02T08:52:40.668Z,41.7
2016-11-02T08:53:20.525Z,40.73
2016-11-02T08:54:01.222Z,40.73
2016-11-02T08:54:41.935Z,40.73
2016-11-02T08:55:22.627Z,41.39
2016-11-02T08:56:03.316Z,42.43
2016-11-02T08:56:43.949Z,42.07
2016-11-02T08:57:24.624Z,41.5
2016-11-02T08:58:05.327Z,41.77
2016-11-02T08:58:45.973Z,42.16
2016-11-02T08:59:26.640Z,42.08
2016-11-02T09:00:07.369Z,41.6
2016-11-02T09:13:45.729Z,43.8
2016-11-02T09:14:26.392Z,43.37
2016-11-02T09:15:07.099Z,44.53
2016-11-02T09:15:47.775Z,45.07
2016-11-02T09:16:29.159Z,46.33
2016-11-02T09:17:09.840Z,46.03
2016-11-02T09:17:50.534Z,46.23
2016-11-02T09:18:32.076Z,46.59
2016-11-02T09:19:12.734Z,47.45
2016-11-02T09:19:53.446Z,47.45
2016-11-02T09:20:36.682Z,46.97
2016-11-02T09:21:16.425Z,46.69
2016-11-02T09:21:57.107Z,46.59
2016-11-02T09:22:37.818Z,46.97
2016-11-02T09:23:18.473Z,46.59
2016-11-02T09:23:59.213Z,46.49
2016-11-02T09:24:40.676Z,46.49
2016-11-02T09:25:20.638Z,46.78
2016-11-02T09:26:01.376Z,46.88
2016-11-02T09:26:42.044Z,46.49